MET'MAP v2.0
soon released !

Expected late october,
this new version will be
more efficient, smarter,
and hosted on a brand new
server x3 powerfull...
...and still free !


Not compatible ?
Try the mobile version !

LOG IN : | Subscribe | Disclaimer | Who is Orbifly ? |
ICAO code :

TAF - LIPS Istrana AFB Treviso - 17 Nov 2019 16:24 UTC
Data Sources :     NOAA   


- Airport Elevation : 137 ft
- No reported NOTAMs.


LIPS - Istrana AFB Treviso

Latest METAR recorded : 2015/08/11 07:55 LIPS 110755Z 07002KT CAVOK 30/14 Q1012 RMK SKC VIS MIN 9999 WIND THR26 00000KT WIND THR08 06003KT BLU
TAF TAF LIPS
Valid from the 17 at 15:00 until the 18 at 00:00 UTC


171400Z 1715/1724 18005KT 9999 FEW020 BKN060
TEMPO 1715/1718 5000 RA BR

Source NOAA


MET'MAP, your aeronautical weather chart ! - Copyright ORBIFLY December 2007

Programming & Development : Alexandra Zaïnal
Co-Developer : Marc-Olivier Méhu
Technical & hardware support : Manuel Goepfert
Concept & Financing : Baudouin d'Aumeries